sensor_id;sensor_type;location;lat;lon;timestamp;P1;durP1;ratioP1;P2;durP2;ratioP2
65753;SDS011;69207;47.502;18.940;2023-11-21T00:00:17;3.62;;;2.00;;
65753;SDS011;69207;47.502;18.940;2023-11-21T00:01:20;5.43;;;2.33;;
65753;SDS011;69207;47.502;18.940;2023-11-21T00:02:23;8.85;;;2.92;;
65753;SDS011;69207;47.502;18.940;2023-11-21T00:03:27;5.12;;;2.30;;
65753;SDS011;69207;47.502;18.940;2023-11-21T00:04:31;5.62;;;2.17;;
65753;SDS011;69207;47.502;18.940;2023-11-21T00:05:34;5.37;;;2.30;;
65753;SDS011;69207;47.502;18.940;2023-11-21T00:06:38;4.70;;;1.98;;
65753;SDS011;69207;47.502;18.940;2023-11-21T00:07:42;5.43;;;1.87;;
65753;SDS011;69207;47.502;18.940;2023-11-21T00:08:46;4.65;;;2.37;;
65753;SDS011;69207;47.502;18.940;2023-11-21T00:09:49;9.77;;;2.40;;
65753;SDS011;69207;47.502;18.940;2023-11-21T00:10:52;4.32;;;2.50;;
65753;SDS011;69207;47.502;18.940;2023-11-21T00:11:55;5.68;;;2.33;;
65753;SDS011;69207;47.502;18.940;2023-11-21T00:12:58;2.92;;;2.05;;
65753;SDS011;69207;47.502;18.940;2023-11-21T00:14:01;6.55;;;2.40;;
65753;SDS011;69207;47.502;18.940;2023-11-21T00:15:05;5.00;;;2.50;;
65753;SDS011;69207;47.502;18.940;2023-11-21T00:16:12;3.50;;;1.90;;
65753;SDS011;69207;47.502;18.940;2023-11-21T00:17:15;4.60;;;1.90;;
65753;SDS011;69207;47.502;18.940;2023-11-21T00:18:19;6.82;;;2.28;;
65753;SDS011;69207;47.502;18.940;2023-11-21T00:19:22;3.37;;;2.00;;
65753;SDS011;69207;47.502;18.940;2023-11-21T00:20:24;5.00;;;2.20;;
65753;SDS011;69207;47.502;18.940;2023-11-21T00:21:27;6.28;;;1.87;;
65753;SDS011;69207;47.502;18.940;2023-11-21T00:22:30;7.87;;;2.25;;
65753;SDS011;69207;47.502;18.940;2023-11-21T00:23:35;6.12;;;2.10;;
65753;SDS011;69207;47.502;18.940;2023-11-21T00:24:38;5.15;;;2.25;;
65753;SDS011;69207;47.502;18.940;2023-11-21T00:25:41;6.45;;;2.53;;
65753;SDS011;69207;47.502;18.940;2023-11-21T00:26:44;5.20;;;2.37;;
65753;SDS011;69207;47.502;18.940;2023-11-21T00:27:48;6.10;;;2.00;;
65753;SDS011;69207;47.502;18.940;2023-11-21T00:28:51;9.43;;;2.65;;
65753;SDS011;69207;47.502;18.940;2023-11-21T00:29:54;9.80;;;2.60;;
65753;SDS011;69207;47.502;18.940;2023-11-21T00:30:57;6.05;;;2.40;;
65753;SDS011;69207;47.502;18.940;2023-11-21T00:32:01;5.85;;;2.10;;
65753;SDS011;69207;47.502;18.940;2023-11-21T00:33:03;6.00;;;2.20;;
65753;SDS011;69207;47.502;18.940;2023-11-21T00:34:07;3.53;;;2.08;;
65753;SDS011;69207;47.502;18.940;2023-11-21T00:35:10;4.47;;;2.08;;
65753;SDS011;69207;47.502;18.940;2023-11-21T00:36:13;6.85;;;2.42;;
65753;SDS011;69207;47.502;18.940;2023-11-21T00:37:16;6.12;;;2.53;;
65753;SDS011;69207;47.502;18.940;2023-11-21T00:38:20;5.35;;;2.35;;
65753;SDS011;69207;47.502;18.940;2023-11-21T00:39:23;6.18;;;2.40;;
65753;SDS011;69207;47.502;18.940;2023-11-21T00:40:26;3.37;;;1.80;;
65753;SDS011;69207;47.502;18.940;2023-11-21T00:41:29;4.57;;;1.95;;
65753;SDS011;69207;47.502;18.940;2023-11-21T00:42:32;4.97;;;2.37;;
65753;SDS011;69207;47.502;18.940;2023-11-21T00:43:38;6.00;;;2.15;;
65753;SDS011;69207;47.502;18.940;2023-11-21T00:44:41;5.45;;;2.22;;
65753;SDS011;69207;47.502;18.940;2023-11-21T00:45:45;6.22;;;2.67;;
65753;SDS011;69207;47.502;18.940;2023-11-21T00:46:48;5.80;;;2.17;;
65753;SDS011;69207;47.502;18.940;2023-11-21T00:47:51;7.97;;;2.42;;
65753;SDS011;69207;47.502;18.940;2023-11-21T00:48:55;7.55;;;2.03;;
65753;SDS011;69207;47.502;18.940;2023-11-21T00:49:58;3.78;;;2.15;;
65753;SDS011;69207;47.502;18.940;2023-11-21T00:51:01;4.82;;;2.35;;
65753;SDS011;69207;47.502;18.940;2023-11-21T00:52:04;3.47;;;2.25;;
65753;SDS011;69207;47.502;18.940;2023-11-21T00:53:08;6.80;;;2.97;;
65753;SDS011;69207;47.502;18.940;2023-11-21T00:54:10;7.97;;;2.58;;
65753;SDS011;69207;47.502;18.940;2023-11-21T00:55:14;8.48;;;2.85;;
65753;SDS011;69207;47.502;18.940;2023-11-21T00:56:18;5.62;;;2.60;;
65753;SDS011;69207;47.502;18.940;2023-11-21T00:57:21;10.27;;;3.40;;
65753;SDS011;69207;47.502;18.940;2023-11-21T00:58:24;6.45;;;2.92;;
65753;SDS011;69207;47.502;18.940;2023-11-21T00:59:28;4.75;;;2.92;;
65753;SDS011;69207;47.502;18.940;2023-11-21T01:00:31;6.47;;;3.05;;
65753;SDS011;69207;47.502;18.940;2023-11-21T01:01:35;6.70;;;3.22;;
65753;SDS011;69207;47.502;18.940;2023-11-21T01:02:38;7.43;;;3.25;;
65753;SDS011;69207;47.502;18.940;2023-11-21T01:03:42;8.60;;;3.17;;
65753;SDS011;69207;47.502;18.940;2023-11-21T01:04:46;6.60;;;3.05;;
65753;SDS011;69207;47.502;18.940;2023-11-21T01:05:50;8.25;;;3.50;;
65753;SDS011;69207;47.502;18.940;2023-11-21T01:06:54;6.10;;;3.05;;
65753;SDS011;69207;47.502;18.940;2023-11-21T01:07:57;6.68;;;2.80;;
65753;SDS011;69207;47.502;18.940;2023-11-21T01:09:00;4.65;;;2.70;;
65753;SDS011;69207;47.502;18.940;2023-11-21T01:10:03;6.15;;;2.53;;
65753;SDS011;69207;47.502;18.940;2023-11-21T01:11:10;5.12;;;2.70;;
65753;SDS011;69207;47.502;18.940;2023-11-21T01:12:15;5.35;;;2.42;;
65753;SDS011;69207;47.502;18.940;2023-11-21T01:13:20;5.53;;;2.45;;
65753;SDS011;69207;47.502;18.940;2023-11-21T01:14:24;5.78;;;2.40;;
65753;SDS011;69207;47.502;18.940;2023-11-21T01:15:29;7.07;;;2.92;;
65753;SDS011;69207;47.502;18.940;2023-11-21T01:16:32;7.95;;;2.40;;
65753;SDS011;69207;47.502;18.940;2023-11-21T01:17:36;5.35;;;2.00;;
65753;SDS011;69207;47.502;18.940;2023-11-21T01:18:40;5.10;;;2.60;;
65753;SDS011;69207;47.502;18.940;2023-11-21T01:19:43;5.07;;;2.40;;
65753;SDS011;69207;47.502;18.940;2023-11-21T01:20:45;5.45;;;2.33;;
65753;SDS011;69207;47.502;18.940;2023-11-21T01:21:49;5.62;;;2.35;;
65753;SDS011;69207;47.502;18.940;2023-11-21T01:22:53;6.22;;;2.85;;
65753;SDS011;69207;47.502;18.940;2023-11-21T01:23:56;7.15;;;2.87;;
65753;SDS011;69207;47.502;18.940;2023-11-21T01:24:59;6.85;;;2.75;;
65753;SDS011;69207;47.502;18.940;2023-11-21T01:26:02;4.50;;;2.65;;
65753;SDS011;69207;47.502;18.940;2023-11-21T01:27:05;6.93;;;2.83;;
65753;SDS011;69207;47.502;18.940;2023-11-21T01:28:09;7.07;;;3.28;;
65753;SDS011;69207;47.502;18.940;2023-11-21T01:29:13;8.18;;;2.28;;
65753;SDS011;69207;47.502;18.940;2023-11-21T01:30:16;4.40;;;2.58;;
65753;SDS011;69207;47.502;18.940;2023-11-21T01:31:19;9.77;;;2.75;;
65753;SDS011;69207;47.502;18.940;2023-11-21T01:32:23;4.28;;;2.50;;
65753;SDS011;69207;47.502;18.940;2023-11-21T01:33:26;8.27;;;2.30;;
65753;SDS011;69207;47.502;18.940;2023-11-21T01:34:30;4.47;;;2.40;;
65753;SDS011;69207;47.502;18.940;2023-11-21T01:35:33;4.25;;;2.45;;
65753;SDS011;69207;47.502;18.940;2023-11-21T01:36:37;7.80;;;2.80;;
65753;SDS011;69207;47.502;18.940;2023-11-21T01:37:40;6.18;;;2.30;;
65753;SDS011;69207;47.502;18.940;2023-11-21T01:38:43;8.60;;;2.60;;
65753;SDS011;69207;47.502;18.940;2023-11-21T01:39:46;4.28;;;2.60;;
65753;SDS011;69207;47.502;18.940;2023-11-21T01:40:50;4.50;;;2.50;;
65753;SDS011;69207;47.502;18.940;2023-11-21T01:41:53;4.10;;;2.40;;
65753;SDS011;69207;47.502;18.940;2023-11-21T01:42:56;5.93;;;2.92;;
65753;SDS011;69207;47.502;18.940;2023-11-21T01:44:01;9.13;;;2.67;;
65753;SDS011;69207;47.502;18.940;2023-11-21T01:45:05;5.78;;;2.20;;
65753;SDS011;69207;47.502;18.940;2023-11-21T01:46:09;6.10;;;2.65;;
65753;SDS011;69207;47.502;18.940;2023-11-21T01:47:12;7.50;;;2.87;;
65753;SDS011;69207;47.502;18.940;2023-11-21T01:48:16;7.25;;;2.58;;
65753;SDS011;69207;47.502;18.940;2023-11-21T01:49:19;7.60;;;2.75;;
65753;SDS011;69207;47.502;18.940;2023-11-21T01:50:23;6.28;;;2.55;;
65753;SDS011;69207;47.502;18.940;2023-11-21T01:51:27;3.37;;;2.50;;
65753;SDS011;69207;47.502;18.940;2023-11-21T01:52:30;11.00;;;2.60;;
65753;SDS011;69207;47.502;18.940;2023-11-21T01:53:33;10.50;;;2.80;;
65753;SDS011;69207;47.502;18.940;2023-11-21T01:54:40;4.60;;;2.42;;
65753;SDS011;69207;47.502;18.940;2023-11-21T01:55:44;6.18;;;2.62;;
65753;SDS011;69207;47.502;18.940;2023-11-21T01:56:48;10.00;;;2.78;;
65753;SDS011;69207;47.502;18.940;2023-11-21T01:57:51;6.25;;;2.87;;
65753;SDS011;69207;47.502;18.940;2023-11-21T01:58:55;6.05;;;2.33;;
65753;SDS011;69207;47.502;18.940;2023-11-21T01:59:59;4.93;;;2.70;;
65753;SDS011;69207;47.502;18.940;2023-11-21T02:01:18;5.20;;;2.42;;
65753;SDS011;69207;47.502;18.940;2023-11-21T02:02:21;5.57;;;2.45;;
65753;SDS011;69207;47.502;18.940;2023-11-21T02:03:25;6.03;;;2.30;;
65753;SDS011;69207;47.502;18.940;2023-11-21T02:04:29;8.23;;;2.90;;
65753;SDS011;69207;47.502;18.940;2023-11-21T02:05:32;5.53;;;2.78;;
65753;SDS011;69207;47.502;18.940;2023-11-21T02:06:35;7.35;;;2.78;;
65753;SDS011;69207;47.502;18.940;2023-11-21T02:07:39;8.63;;;3.05;;
65753;SDS011;69207;47.502;18.940;2023-11-21T02:08:42;6.97;;;2.47;;
65753;SDS011;69207;47.502;18.940;2023-11-21T02:09:46;5.87;;;2.53;;
65753;SDS011;69207;47.502;18.940;2023-11-21T02:10:50;7.75;;;3.28;;
65753;SDS011;69207;47.502;18.940;2023-11-21T02:11:54;6.35;;;2.62;;
65753;SDS011;69207;47.502;18.940;2023-11-21T02:13:00;4.60;;;2.50;;
65753;SDS011;69207;47.502;18.940;2023-11-21T02:14:05;6.78;;;2.42;;
65753;SDS011;69207;47.502;18.940;2023-11-21T02:15:14;5.12;;;2.33;;
65753;SDS011;69207;47.502;18.940;2023-11-21T02:16:31;5.30;;;2.67;;
65753;SDS011;69207;47.502;18.940;2023-11-21T02:17:36;7.12;;;2.25;;
65753;SDS011;69207;47.502;18.940;2023-11-21T02:18:39;5.10;;;2.15;;
65753;SDS011;69207;47.502;18.940;2023-11-21T02:19:42;3.03;;;2.25;;
65753;SDS011;69207;47.502;18.940;2023-11-21T02:20:46;6.15;;;2.17;;
65753;SDS011;69207;47.502;18.940;2023-11-21T02:21:49;6.35;;;2.20;;
65753;SDS011;69207;47.502;18.940;2023-11-21T02:22:54;8.98;;;2.50;;
65753;SDS011;69207;47.502;18.940;2023-11-21T02:24:03;6.00;;;2.42;;
65753;SDS011;69207;47.502;18.940;2023-11-21T02:25:06;3.60;;;2.22;;
65753;SDS011;69207;47.502;18.940;2023-11-21T02:26:10;9.07;;;2.37;;
65753;SDS011;69207;47.502;18.940;2023-11-21T02:27:13;6.32;;;2.20;;
65753;SDS011;69207;47.502;18.940;2023-11-21T02:28:23;5.65;;;2.12;;
65753;SDS011;69207;47.502;18.940;2023-11-21T02:29:28;10.45;;;2.50;;
65753;SDS011;69207;47.502;18.940;2023-11-21T02:30:32;5.35;;;2.20;;
65753;SDS011;69207;47.502;18.940;2023-11-21T02:31:35;5.80;;;2.35;;
65753;SDS011;69207;47.502;18.940;2023-11-21T02:32:40;5.32;;;3.10;;
65753;SDS011;69207;47.502;18.940;2023-11-21T02:33:51;7.30;;;2.00;;
65753;SDS011;69207;47.502;18.940;2023-11-21T02:34:55;5.30;;;1.90;;
65753;SDS011;69207;47.502;18.940;2023-11-21T02:35:58;4.03;;;1.80;;
65753;SDS011;69207;47.502;18.940;2023-11-21T02:37:02;10.27;;;2.83;;
65753;SDS011;69207;47.502;18.940;2023-11-21T02:38:05;5.87;;;2.03;;
65753;SDS011;69207;47.502;18.940;2023-11-21T02:39:09;2.58;;;2.00;;
65753;SDS011;69207;47.502;18.940;2023-11-21T02:40:13;3.30;;;1.87;;
65753;SDS011;69207;47.502;18.940;2023-11-21T02:41:20;3.40;;;1.92;;
65753;SDS011;69207;47.502;18.940;2023-11-21T02:42:23;6.00;;;2.00;;
65753;SDS011;69207;47.502;18.940;2023-11-21T02:43:27;4.18;;;2.05;;
65753;SDS011;69207;47.502;18.940;2023-11-21T02:44:31;4.28;;;2.10;;
65753;SDS011;69207;47.502;18.940;2023-11-21T02:45:34;5.10;;;2.05;;
65753;SDS011;69207;47.502;18.940;2023-11-21T02:46:37;3.03;;;2.10;;
65753;SDS011;69207;47.502;18.940;2023-11-21T02:47:42;10.13;;;2.28;;
65753;SDS011;69207;47.502;18.940;2023-11-21T02:48:46;3.53;;;1.80;;
65753;SDS011;69207;47.502;18.940;2023-11-21T02:49:49;5.53;;;2.20;;
65753;SDS011;69207;47.502;18.940;2023-11-21T02:50:54;6.72;;;1.85;;
65753;SDS011;69207;47.502;18.940;2023-11-21T02:51:58;5.80;;;2.03;;
65753;SDS011;69207;47.502;18.940;2023-11-21T02:53:01;5.40;;;2.53;;
65753;SDS011;69207;47.502;18.940;2023-11-21T02:54:05;6.32;;;1.90;;
65753;SDS011;69207;47.502;18.940;2023-11-21T02:55:10;9.43;;;1.87;;
65753;SDS011;69207;47.502;18.940;2023-11-21T02:56:14;8.40;;;1.60;;
65753;SDS011;69207;47.502;18.940;2023-11-21T02:57:17;5.60;;;2.05;;
65753;SDS011;69207;47.502;18.940;2023-11-21T02:58:21;2.55;;;1.58;;
65753;SDS011;69207;47.502;18.940;2023-11-21T02:59:24;2.80;;;1.80;;
65753;SDS011;69207;47.502;18.940;2023-11-21T03:00:28;6.45;;;2.15;;
65753;SDS011;69207;47.502;18.940;2023-11-21T03:01:31;3.45;;;1.70;;
65753;SDS011;69207;47.502;18.940;2023-11-21T03:02:34;4.82;;;2.10;;
65753;SDS011;69207;47.502;18.940;2023-11-21T03:03:43;5.43;;;1.62;;
65753;SDS011;69207;47.502;18.940;2023-11-21T03:04:46;5.12;;;1.60;;
65753;SDS011;69207;47.502;18.940;2023-11-21T03:05:51;4.78;;;1.77;;
65753;SDS011;69207;47.502;18.940;2023-11-21T03:06:54;5.87;;;1.87;;
65753;SDS011;69207;47.502;18.940;2023-11-21T03:07:57;4.00;;;1.60;;
65753;SDS011;69207;47.502;18.940;2023-11-21T03:09:01;4.60;;;1.92;;
65753;SDS011;69207;47.502;18.940;2023-11-21T03:10:04;4.85;;;1.52;;
65753;SDS011;69207;47.502;18.940;2023-11-21T03:11:07;3.53;;;1.65;;
65753;SDS011;69207;47.502;18.940;2023-11-21T03:12:10;4.47;;;1.67;;
65753;SDS011;69207;47.502;18.940;2023-11-21T03:13:15;5.35;;;1.67;;
65753;SDS011;69207;47.502;18.940;2023-11-21T03:14:18;2.80;;;1.55;;
65753;SDS011;69207;47.502;18.940;2023-11-21T03:15:21;4.00;;;1.60;;
65753;SDS011;69207;47.502;18.940;2023-11-21T03:16:24;4.10;;;1.70;;
65753;SDS011;69207;47.502;18.940;2023-11-21T03:17:28;3.47;;;1.73;;
65753;SDS011;69207;47.502;18.940;2023-11-21T03:18:31;2.22;;;1.50;;
65753;SDS011;69207;47.502;18.940;2023-11-21T03:19:35;6.93;;;1.83;;
65753;SDS011;69207;47.502;18.940;2023-11-21T03:20:38;5.43;;;2.05;;
65753;SDS011;69207;47.502;18.940;2023-11-21T03:21:41;4.22;;;1.40;;
65753;SDS011;69207;47.502;18.940;2023-11-21T03:22:44;6.12;;;1.83;;
65753;SDS011;69207;47.502;18.940;2023-11-21T03:23:47;3.42;;;1.70;;
65753;SDS011;69207;47.502;18.940;2023-11-21T03:24:50;7.30;;;2.00;;
65753;SDS011;69207;47.502;18.940;2023-11-21T03:25:53;4.57;;;1.83;;
65753;SDS011;69207;47.502;18.940;2023-11-21T03:26:56;3.92;;;1.60;;
65753;SDS011;69207;47.502;18.940;2023-11-21T03:27:59;6.10;;;1.60;;
65753;SDS011;69207;47.502;18.940;2023-11-21T03:29:02;3.42;;;1.60;;
65753;SDS011;69207;47.502;18.940;2023-11-21T03:30:08;5.12;;;1.67;;
65753;SDS011;69207;47.502;18.940;2023-11-21T03:31:13;6.95;;;1.87;;
65753;SDS011;69207;47.502;18.940;2023-11-21T03:32:16;3.58;;;1.60;;
65753;SDS011;69207;47.502;18.940;2023-11-21T03:33:19;2.17;;;1.55;;
65753;SDS011;69207;47.502;18.940;2023-11-21T03:34:24;3.65;;;1.50;;
65753;SDS011;69207;47.502;18.940;2023-11-21T03:35:31;5.45;;;1.58;;
65753;SDS011;69207;47.502;18.940;2023-11-21T03:36:35;5.62;;;1.73;;
65753;SDS011;69207;47.502;18.940;2023-11-21T03:37:39;3.85;;;1.50;;
65753;SDS011;69207;47.502;18.940;2023-11-21T03:38:44;5.20;;;1.67;;
65753;SDS011;69207;47.502;18.940;2023-11-21T03:39:48;5.25;;;1.40;;
65753;SDS011;69207;47.502;18.940;2023-11-21T03:40:51;7.32;;;1.92;;
65753;SDS011;69207;47.502;18.940;2023-11-21T03:41:54;4.53;;;1.70;;
65753;SDS011;69207;47.502;18.940;2023-11-21T03:42:57;5.12;;;1.77;;
65753;SDS011;69207;47.502;18.940;2023-11-21T03:44:00;4.72;;;1.80;;
65753;SDS011;69207;47.502;18.940;2023-11-21T03:45:04;4.12;;;1.62;;
65753;SDS011;69207;47.502;18.940;2023-11-21T03:46:08;4.20;;;1.90;;
65753;SDS011;69207;47.502;18.940;2023-11-21T03:47:12;6.47;;;1.70;;
65753;SDS011;69207;47.502;18.940;2023-11-21T03:48:16;5.50;;;1.85;;
65753;SDS011;69207;47.502;18.940;2023-11-21T03:49:19;4.60;;;1.65;;
65753;SDS011;69207;47.502;18.940;2023-11-21T03:50:22;3.95;;;1.70;;
65753;SDS011;69207;47.502;18.940;2023-11-21T03:51:24;6.25;;;1.90;;
65753;SDS011;69207;47.502;18.940;2023-11-21T03:52:28;3.87;;;1.48;;
65753;SDS011;69207;47.502;18.940;2023-11-21T03:53:31;4.80;;;1.77;;
65753;SDS011;69207;47.502;18.940;2023-11-21T03:54:34;8.05;;;2.03;;
65753;SDS011;69207;47.502;18.940;2023-11-21T03:55:38;2.80;;;1.80;;
65753;SDS011;69207;47.502;18.940;2023-11-21T03:56:42;5.53;;;1.70;;
65753;SDS011;69207;47.502;18.940;2023-11-21T03:57:45;4.40;;;2.03;;
65753;SDS011;69207;47.502;18.940;2023-11-21T03:58:48;5.93;;;1.80;;
65753;SDS011;69207;47.502;18.940;2023-11-21T03:59:52;4.35;;;1.45;;
65753;SDS011;69207;47.502;18.940;2023-11-21T04:00:55;4.35;;;1.45;;
65753;SDS011;69207;47.502;18.940;2023-11-21T04:01:58;5.12;;;1.80;;
65753;SDS011;69207;47.502;18.940;2023-11-21T04:03:01;4.72;;;1.50;;
65753;SDS011;69207;47.502;18.940;2023-11-21T04:04:05;4.35;;;1.70;;
65753;SDS011;69207;47.502;18.940;2023-11-21T04:05:09;3.50;;;1.92;;
65753;SDS011;69207;47.502;18.940;2023-11-21T04:06:12;5.10;;;1.67;;
65753;SDS011;69207;47.502;18.940;2023-11-21T04:07:15;5.65;;;1.67;;
65753;SDS011;69207;47.502;18.940;2023-11-21T04:08:19;4.75;;;1.42;;
65753;SDS011;69207;47.502;18.940;2023-11-21T04:09:22;5.45;;;1.85;;
65753;SDS011;69207;47.502;18.940;2023-11-21T04:10:27;2.97;;;1.73;;
65753;SDS011;69207;47.502;18.940;2023-11-21T04:11:31;3.05;;;1.60;;
65753;SDS011;69207;47.502;18.940;2023-11-21T04:12:35;5.18;;;1.67;;
65753;SDS011;69207;47.502;18.940;2023-11-21T04:13:39;5.78;;;1.80;;
65753;SDS011;69207;47.502;18.940;2023-11-21T04:14:43;4.10;;;1.50;;
65753;SDS011;69207;47.502;18.940;2023-11-21T04:15:46;2.33;;;1.40;;
65753;SDS011;69207;47.502;18.940;2023-11-21T04:16:48;3.10;;;1.52;;
65753;SDS011;69207;47.502;18.940;2023-11-21T04:17:52;4.55;;;1.85;;
65753;SDS011;69207;47.502;18.940;2023-11-21T04:18:55;3.72;;;1.70;;
65753;SDS011;69207;47.502;18.940;2023-11-21T04:20:00;6.55;;;1.52;;
65753;SDS011;69207;47.502;18.940;2023-11-21T04:21:04;6.10;;;1.80;;
65753;SDS011;69207;47.502;18.940;2023-11-21T04:22:08;4.60;;;2.03;;
65753;SDS011;69207;47.502;18.940;2023-11-21T04:23:11;5.03;;;2.05;;
65753;SDS011;69207;47.502;18.940;2023-11-21T04:24:16;3.55;;;1.50;;
65753;SDS011;69207;47.502;18.940;2023-11-21T04:25:19;5.72;;;1.73;;
65753;SDS011;69207;47.502;18.940;2023-11-21T04:26:22;4.45;;;1.70;;
65753;SDS011;69207;47.502;18.940;2023-11-21T04:27:25;5.00;;;1.80;;
65753;SDS011;69207;47.502;18.940;2023-11-21T04:28:28;9.80;;;1.95;;
65753;SDS011;69207;47.502;18.940;2023-11-21T04:29:31;5.30;;;1.58;;
65753;SDS011;69207;47.502;18.940;2023-11-21T04:30:34;4.03;;;1.62;;
65753;SDS011;69207;47.502;18.940;2023-11-21T04:31:38;5.87;;;1.95;;
65753;SDS011;69207;47.502;18.940;2023-11-21T04:32:41;3.28;;;1.35;;
65753;SDS011;69207;47.502;18.940;2023-11-21T04:33:44;5.65;;;1.60;;
65753;SDS011;69207;47.502;18.940;2023-11-21T04:34:47;4.72;;;1.77;;
65753;SDS011;69207;47.502;18.940;2023-11-21T04:35:50;3.03;;;1.73;;
65753;SDS011;69207;47.502;18.940;2023-11-21T04:36:54;3.85;;;1.58;;
65753;SDS011;69207;47.502;18.940;2023-11-21T04:37:57;2.25;;;1.40;;
65753;SDS011;69207;47.502;18.940;2023-11-21T04:39:01;3.15;;;1.48;;
65753;SDS011;69207;47.502;18.940;2023-11-21T04:40:04;1.65;;;1.15;;
65753;SDS011;69207;47.502;18.940;2023-11-21T04:41:10;5.18;;;1.50;;
65753;SDS011;69207;47.502;18.940;2023-11-21T04:42:14;7.20;;;1.67;;
65753;SDS011;69207;47.502;18.940;2023-11-21T04:43:17;5.50;;;1.50;;
65753;SDS011;69207;47.502;18.940;2023-11-21T04:44:21;4.70;;;1.70;;
65753;SDS011;69207;47.502;18.940;2023-11-21T04:45:24;4.62;;;1.70;;
65753;SDS011;69207;47.502;18.940;2023-11-21T04:46:27;6.85;;;1.65;;
65753;SDS011;69207;47.502;18.940;2023-11-21T04:47:30;3.92;;;1.70;;
65753;SDS011;69207;47.502;18.940;2023-11-21T04:48:33;1.83;;;1.00;;
65753;SDS011;69207;47.502;18.940;2023-11-21T04:49:36;3.05;;;1.50;;
65753;SDS011;69207;47.502;18.940;2023-11-21T04:50:39;5.45;;;1.30;;
65753;SDS011;69207;47.502;18.940;2023-11-21T04:51:42;6.25;;;1.40;;
65753;SDS011;69207;47.502;18.940;2023-11-21T04:52:46;2.67;;;1.48;;
65753;SDS011;69207;47.502;18.940;2023-11-21T04:53:49;2.90;;;1.40;;
65753;SDS011;69207;47.502;18.940;2023-11-21T04:54:52;8.38;;;1.50;;
65753;SDS011;69207;47.502;18.940;2023-11-21T04:55:57;4.60;;;1.60;;
65753;SDS011;69207;47.502;18.940;2023-11-21T04:57:00;4.72;;;1.70;;
65753;SDS011;69207;47.502;18.940;2023-11-21T04:58:03;6.37;;;1.75;;
65753;SDS011;69207;47.502;18.940;2023-11-21T04:59:07;4.28;;;1.62;;
65753;SDS011;69207;47.502;18.940;2023-11-21T05:00:11;6.07;;;1.70;;
65753;SDS011;69207;47.502;18.940;2023-11-21T05:01:15;8.13;;;1.80;;
65753;SDS011;69207;47.502;18.940;2023-11-21T05:02:19;3.37;;;1.30;;
65753;SDS011;69207;47.502;18.940;2023-11-21T05:03:36;3.17;;;1.55;;
65753;SDS011;69207;47.502;18.940;2023-11-21T05:04:41;6.32;;;1.58;;
65753;SDS011;69207;47.502;18.940;2023-11-21T05:05:45;4.55;;;1.30;;
65753;SDS011;69207;47.502;18.940;2023-11-21T05:06:48;4.00;;;1.35;;
65753;SDS011;69207;47.502;18.940;2023-11-21T05:07:51;4.05;;;1.52;;
65753;SDS011;69207;47.502;18.940;2023-11-21T05:08:55;2.42;;;1.45;;
65753;SDS011;69207;47.502;18.940;2023-11-21T05:09:59;3.50;;;1.30;;
65753;SDS011;69207;47.502;18.940;2023-11-21T05:11:01;6.05;;;1.45;;
65753;SDS011;69207;47.502;18.940;2023-11-21T05:12:05;3.78;;;1.70;;
65753;SDS011;69207;47.502;18.940;2023-11-21T05:13:08;3.87;;;1.50;;
65753;SDS011;69207;47.502;18.940;2023-11-21T05:14:13;3.55;;;1.45;;
65753;SDS011;69207;47.502;18.940;2023-11-21T05:15:16;2.67;;;1.27;;
65753;SDS011;69207;47.502;18.940;2023-11-21T05:16:20;4.72;;;1.48;;
65753;SDS011;69207;47.502;18.940;2023-11-21T05:17:24;3.08;;;1.37;;
65753;SDS011;69207;47.502;18.940;2023-11-21T05:18:28;3.95;;;1.40;;
65753;SDS011;69207;47.502;18.940;2023-11-21T05:19:32;3.65;;;1.48;;
65753;SDS011;69207;47.502;18.940;2023-11-21T05:20:37;3.92;;;1.40;;
65753;SDS011;69207;47.502;18.940;2023-11-21T05:21:41;2.08;;;1.17;;
65753;SDS011;69207;47.502;18.940;2023-11-21T05:22:44;1.52;;;1.20;;
65753;SDS011;69207;47.502;18.940;2023-11-21T05:23:48;2.87;;;1.25;;
65753;SDS011;69207;47.502;18.940;2023-11-21T05:24:51;6.68;;;1.65;;
65753;SDS011;69207;47.502;18.940;2023-11-21T05:25:54;4.65;;;1.33;;
65753;SDS011;69207;47.502;18.940;2023-11-21T05:26:58;2.10;;;1.17;;
65753;SDS011;69207;47.502;18.940;2023-11-21T05:28:02;3.47;;;1.23;;
65753;SDS011;69207;47.502;18.940;2023-11-21T05:29:06;3.37;;;1.48;;
65753;SDS011;69207;47.502;18.940;2023-11-21T05:30:10;3.47;;;1.12;;
65753;SDS011;69207;47.502;18.940;2023-11-21T05:31:15;2.37;;;1.20;;
65753;SDS011;69207;47.502;18.940;2023-11-21T05:32:18;2.87;;;1.23;;
65753;SDS011;69207;47.502;18.940;2023-11-21T05:33:22;2.85;;;1.23;;
65753;SDS011;69207;47.502;18.940;2023-11-21T05:34:25;2.50;;;1.42;;
65753;SDS011;69207;47.502;18.940;2023-11-21T05:35:29;6.28;;;1.30;;
65753;SDS011;69207;47.502;18.940;2023-11-21T05:36:32;3.10;;;1.20;;
65753;SDS011;69207;47.502;18.940;2023-11-21T05:37:36;3.00;;;1.30;;
65753;SDS011;69207;47.502;18.940;2023-11-21T05:38:39;4.28;;;1.27;;
65753;SDS011;69207;47.502;18.940;2023-11-21T05:39:42;6.57;;;1.60;;
65753;SDS011;69207;47.502;18.940;2023-11-21T05:40:45;3.33;;;1.40;;
65753;SDS011;69207;47.502;18.940;2023-11-21T05:41:49;4.68;;;1.55;;
65753;SDS011;69207;47.502;18.940;2023-11-21T05:42:52;3.37;;;1.10;;
65753;SDS011;69207;47.502;18.940;2023-11-21T05:43:55;2.33;;;1.30;;
65753;SDS011;69207;47.502;18.940;2023-11-21T05:44:58;1.77;;;1.33;;
65753;SDS011;69207;47.502;18.940;2023-11-21T05:46:01;3.25;;;1.10;;
65753;SDS011;69207;47.502;18.940;2023-11-21T05:47:04;4.85;;;1.30;;
65753;SDS011;69207;47.502;18.940;2023-11-21T05:48:10;3.22;;;1.48;;
65753;SDS011;69207;47.502;18.940;2023-11-21T05:49:13;2.22;;;1.20;;
65753;SDS011;69207;47.502;18.940;2023-11-21T05:50:16;2.78;;;1.25;;
65753;SDS011;69207;47.502;18.940;2023-11-21T05:51:20;3.60;;;1.20;;
65753;SDS011;69207;47.502;18.940;2023-11-21T05:52:24;5.65;;;1.45;;
65753;SDS011;69207;47.502;18.940;2023-11-21T05:53:27;2.33;;;1.58;;
65753;SDS011;69207;47.502;18.940;2023-11-21T05:54:30;7.50;;;1.50;;
65753;SDS011;69207;47.502;18.940;2023-11-21T05:55:33;3.90;;;1.40;;
65753;SDS011;69207;47.502;18.940;2023-11-21T05:56:36;3.42;;;1.40;;
65753;SDS011;69207;47.502;18.940;2023-11-21T05:57:40;7.47;;;1.50;;
65753;SDS011;69207;47.502;18.940;2023-11-21T05:58:44;2.40;;;1.37;;
65753;SDS011;69207;47.502;18.940;2023-11-21T05:59:47;4.25;;;1.33;;
65753;SDS011;69207;47.502;18.940;2023-11-21T06:00:50;4.43;;;1.17;;
65753;SDS011;69207;47.502;18.940;2023-11-21T06:01:54;2.37;;;1.08;;
65753;SDS011;69207;47.502;18.940;2023-11-21T06:02:57;2.70;;;1.33;;
65753;SDS011;69207;47.502;18.940;2023-11-21T06:04:00;2.50;;;1.40;;
65753;SDS011;69207;47.502;18.940;2023-11-21T06:05:04;4.72;;;1.48;;
65753;SDS011;69207;47.502;18.940;2023-11-21T06:06:08;2.35;;;1.20;;
65753;SDS011;69207;47.502;18.940;2023-11-21T06:07:11;1.58;;;1.10;;
65753;SDS011;69207;47.502;18.940;2023-11-21T06:08:15;4.55;;;1.37;;
65753;SDS011;69207;47.502;18.940;2023-11-21T06:09:19;3.58;;;0.90;;
65753;SDS011;69207;47.502;18.940;2023-11-21T06:10:23;5.20;;;1.33;;
65753;SDS011;69207;47.502;18.940;2023-11-21T06:11:27;3.03;;;1.20;;
65753;SDS011;69207;47.502;18.940;2023-11-21T06:12:30;3.53;;;1.20;;
65753;SDS011;69207;47.502;18.940;2023-11-21T06:13:33;3.45;;;1.45;;
65753;SDS011;69207;47.502;18.940;2023-11-21T06:14:37;3.20;;;1.33;;
65753;SDS011;69207;47.502;18.940;2023-11-21T06:15:40;5.65;;;1.50;;
65753;SDS011;69207;47.502;18.940;2023-11-21T06:16:43;2.65;;;1.10;;
65753;SDS011;69207;47.502;18.940;2023-11-21T06:17:48;1.95;;;1.33;;